Terminal Aerodrome Forecast
Issued by NWS

Home | Current Version | Previous Version | Text Only | Print | Product List | Glossary On
Versions: 1 2 3 4 5 6 7 8 9 10 11 12 13 14 15 16 17 18 19 20
696
FTUS41 KCLE 221140
TAFFDY
TAF
KFDY 221140Z 2212/2312 VRB03KT 2SM BR BKN080
      TEMPO 2212/2213 1SM BR
     FM221400 VRB03KT 6SM HZ SCT025
     FM230000 04010KT 5SM BR OVC015=

USA.gov is the U.S. government's official web portal to all federal, state and local government web resources and services.